sensor_id;sensor_type;location;lat;lon;timestamp;pressure;altitude;pressure_sealevel;temperature;humidity
56270;BME280;42176;43.240;27.880;2022-08-03T00:00:33;99991.38;;;21.78;76.26
56270;BME280;42176;43.240;27.880;2022-08-03T00:02:58;99997.84;;;21.75;75.79
56270;BME280;42176;43.240;27.880;2022-08-03T00:05:24;99997.00;;;21.74;75.56
56270;BME280;42176;43.240;27.880;2022-08-03T00:07:49;99996.44;;;21.69;75.10
56270;BME280;42176;43.240;27.880;2022-08-03T00:10:15;100000.22;;;21.67;75.00
56270;BME280;42176;43.240;27.880;2022-08-03T00:12:41;100000.44;;;21.64;74.58
56270;BME280;42176;43.240;27.880;2022-08-03T00:15:07;100006.94;;;21.61;74.49
56270;BME280;42176;43.240;27.880;2022-08-03T00:17:32;99994.59;;;21.57;74.57
56270;BME280;42176;43.240;27.880;2022-08-03T00:19:58;99996.31;;;21.58;74.73
56270;BME280;42176;43.240;27.880;2022-08-03T00:22:23;99987.69;;;21.53;74.65
56270;BME280;42176;43.240;27.880;2022-08-03T00:24:48;99984.88;;;21.54;74.42
56270;BME280;42176;43.240;27.880;2022-08-03T00:27:14;99988.66;;;21.52;74.70
56270;BME280;42176;43.240;27.880;2022-08-03T00:29:39;99988.88;;;21.49;74.61
56270;BME280;42176;43.240;27.880;2022-08-03T00:32:05;99988.97;;;21.47;74.33
56270;BME280;42176;43.240;27.880;2022-08-03T00:34:30;99984.66;;;21.44;74.34
56270;BME280;42176;43.240;27.880;2022-08-03T00:36:56;99984.03;;;21.41;74.32
56270;BME280;42176;43.240;27.880;2022-08-03T00:39:21;99971.28;;;21.30;74.07
56270;BME280;42176;43.240;27.880;2022-08-03T00:41:47;99985.28;;;21.35;74.18
56270;BME280;42176;43.240;27.880;2022-08-03T00:44:12;99989.84;;;21.35;74.03
56270;BME280;42176;43.240;27.880;2022-08-03T00:46:38;99984.44;;;21.35;73.62
56270;BME280;42176;43.240;27.880;2022-08-03T00:49:03;99990.69;;;21.35;73.52
56270;BME280;42176;43.240;27.880;2022-08-03T00:51:29;99994.34;;;21.34;73.73
56270;BME280;42176;43.240;27.880;2022-08-03T00:53:54;99988.22;;;21.32;74.03
56270;BME280;42176;43.240;27.880;2022-08-03T00:56:20;99979.59;;;21.27;73.63
56270;BME280;42176;43.240;27.880;2022-08-03T00:58:45;99989.41;;;21.28;74.04
56270;BME280;42176;43.240;27.880;2022-08-03T01:01:11;99988.63;;;21.26;74.19
56270;BME280;42176;43.240;27.880;2022-08-03T01:03:37;99990.50;;;21.25;73.89
56270;BME280;42176;43.240;27.880;2022-08-03T01:06:24;99984.22;;;21.25;74.10
56270;BME280;42176;43.240;27.880;2022-08-03T01:09:01;99991.53;;;21.23;74.15
56270;BME280;42176;43.240;27.880;2022-08-03T01:11:45;99984.41;;;21.22;73.87
56270;BME280;42176;43.240;27.880;2022-08-03T01:14:15;99988.09;;;21.21;73.90
56270;BME280;42176;43.240;27.880;2022-08-03T01:19:49;99985.63;;;21.18;73.62
56270;BME280;42176;43.240;27.880;2022-08-03T01:30:43;99985.84;;;21.14;73.25
56270;BME280;42176;43.240;27.880;2022-08-03T01:33:27;99989.28;;;21.17;73.01
56270;BME280;42176;43.240;27.880;2022-08-03T01:36:02;99981.81;;;21.07;73.01
56270;BME280;42176;43.240;27.880;2022-08-03T01:38:38;99982.69;;;21.08;73.15
56270;BME280;42176;43.240;27.880;2022-08-03T01:41:18;99988.53;;;21.14;73.09
56270;BME280;42176;43.240;27.880;2022-08-03T01:43:47;99991.97;;;21.17;73.17
56270;BME280;42176;43.240;27.880;2022-08-03T01:46:16;99997.56;;;21.13;73.09
56270;BME280;42176;43.240;27.880;2022-08-03T01:48:43;99995.41;;;21.19;72.99
56270;BME280;42176;43.240;27.880;2022-08-03T01:51:10;99984.88;;;21.16;73.29
56270;BME280;42176;43.240;27.880;2022-08-03T01:53:39;99990.25;;;21.16;73.21
56270;BME280;42176;43.240;27.880;2022-08-03T01:56:07;99988.53;;;21.14;73.13
56270;BME280;42176;43.240;27.880;2022-08-03T01:58:34;99988.53;;;21.14;73.19
56270;BME280;42176;43.240;27.880;2022-08-03T02:01:01;99990.47;;;21.12;73.44
56270;BME280;42176;43.240;27.880;2022-08-03T02:03:28;99990.47;;;21.12;73.30
56270;BME280;42176;43.240;27.880;2022-08-03T02:05:55;99989.56;;;21.12;72.98
56270;BME280;42176;43.240;27.880;2022-08-03T02:08:24;99986.25;;;21.08;73.18
56270;BME280;42176;43.240;27.880;2022-08-03T02:10:54;99985.28;;;21.09;72.96
56270;BME280;42176;43.240;27.880;2022-08-03T02:13:22;99987.41;;;21.04;72.79
56270;BME280;42176;43.240;27.880;2022-08-03T02:15:48;99990.88;;;21.06;73.17
56270;BME280;42176;43.240;27.880;2022-08-03T02:18:17;99990.88;;;21.06;72.66
56270;BME280;42176;43.240;27.880;2022-08-03T02:20:44;99989.13;;;21.05;72.74
56270;BME280;42176;43.240;27.880;2022-08-03T02:23:10;99988.16;;;21.06;72.53
56270;BME280;42176;43.240;27.880;2022-08-03T02:25:45;99996.25;;;21.06;72.38
56270;BME280;42176;43.240;27.880;2022-08-03T02:28:18;99999.06;;;21.05;72.47
56270;BME280;42176;43.240;27.880;2022-08-03T02:30:48;99992.59;;;21.07;72.50
56270;BME280;42176;43.240;27.880;2022-08-03T02:33:20;99990.88;;;21.06;72.49
56270;BME280;42176;43.240;27.880;2022-08-03T02:35:49;99980.72;;;20.97;72.67
56270;BME280;42176;43.240;27.880;2022-08-03T02:38:20;99996.69;;;21.00;72.48
56270;BME280;42176;43.240;27.880;2022-08-03T02:40:50;99980.38;;;20.89;72.57
56270;BME280;42176;43.240;27.880;2022-08-03T02:43:18;99998.81;;;20.95;72.50
56270;BME280;42176;43.240;27.880;2022-08-03T02:45:47;100003.44;;;20.93;72.83
56270;BME280;42176;43.240;27.880;2022-08-03T02:48:22;99996.53;;;20.89;72.59
56270;BME280;42176;43.240;27.880;2022-08-03T02:50:52;99992.09;;;20.88;72.94
56270;BME280;42176;43.240;27.880;2022-08-03T02:53:19;99988.44;;;20.89;73.03
56270;BME280;42176;43.240;27.880;2022-08-03T02:55:46;99992.78;;;20.91;72.86
56270;BME280;42176;43.240;27.880;2022-08-03T02:58:13;99999.03;;;20.92;72.69
56270;BME280;42176;43.240;27.880;2022-08-03T03:00:42;99984.03;;;20.88;72.79
56270;BME280;42176;43.240;27.880;2022-08-03T03:03:08;99996.13;;;20.95;72.51
56270;BME280;42176;43.240;27.880;2022-08-03T03:05:35;99991.50;;;20.97;72.16
56270;BME280;42176;43.240;27.880;2022-08-03T03:08:01;99999.38;;;21.00;72.41
56270;BME280;42176;43.240;27.880;2022-08-03T03:10:27;99993.03;;;21.01;71.78
56270;BME280;42176;43.240;27.880;2022-08-03T03:12:57;100008.00;;;21.05;72.10
56270;BME280;42176;43.240;27.880;2022-08-03T03:15:23;100007.03;;;21.06;71.60
56270;BME280;42176;43.240;27.880;2022-08-03T03:17:50;99985.91;;;21.00;71.26
56270;BME280;42176;43.240;27.880;2022-08-03T03:20:17;100008.56;;;21.10;71.30
56270;BME280;42176;43.240;27.880;2022-08-03T03:22:46;100007.59;;;21.11;71.03
56270;BME280;42176;43.240;27.880;2022-08-03T03:25:12;100007.19;;;21.18;70.98
56270;BME280;42176;43.240;27.880;2022-08-03T03:27:38;100006.88;;;21.22;70.65
56270;BME280;42176;43.240;27.880;2022-08-03T03:30:04;100005.78;;;21.25;70.21
56270;BME280;42176;43.240;27.880;2022-08-03T03:32:30;100012.69;;;21.29;69.98
56270;BME280;42176;43.240;27.880;2022-08-03T03:34:56;100024.31;;;21.29;70.35
56270;BME280;42176;43.240;27.880;2022-08-03T03:37:25;100015.91;;;21.34;69.85
56270;BME280;42176;43.240;27.880;2022-08-03T03:39:53;100024.00;;;21.34;69.77
56270;BME280;42176;43.240;27.880;2022-08-03T03:42:20;100023.91;;;21.36;69.86
56270;BME280;42176;43.240;27.880;2022-08-03T03:44:45;100029.34;;;21.49;69.54
56270;BME280;42176;43.240;27.880;2022-08-03T03:47:11;100007.50;;;22.16;67.40
56270;BME280;42176;43.240;27.880;2022-08-03T03:49:38;100022.75;;;22.79;64.33
56270;BME280;42176;43.240;27.880;2022-08-03T03:52:04;100027.41;;;23.37;62.01
56270;BME280;42176;43.240;27.880;2022-08-03T03:54:42;100026.53;;;23.95;59.74
56270;BME280;42176;43.240;27.880;2022-08-03T03:57:09;100013.22;;;24.37;57.70
56270;BME280;42176;43.240;27.880;2022-08-03T03:59:41;100026.09;;;25.00;55.68
56270;BME280;42176;43.240;27.880;2022-08-03T04:02:08;100026.81;;;25.56;54.14
56270;BME280;42176;43.240;27.880;2022-08-03T04:04:35;100024.69;;;26.12;52.62
56270;BME280;42176;43.240;27.880;2022-08-03T04:07:19;100031.22;;;26.50;50.75
56270;BME280;42176;43.240;27.880;2022-08-03T04:10:12;100027.00;;;27.07;49.03
56270;BME280;42176;43.240;27.880;2022-08-03T04:12:58;100038.28;;;27.71;47.90
56270;BME280;42176;43.240;27.880;2022-08-03T04:15:27;100036.81;;;28.24;46.23
56270;BME280;42176;43.240;27.880;2022-08-03T04:17:56;100036.59;;;28.63;45.90
56270;BME280;42176;43.240;27.880;2022-08-03T04:20:25;100039.34;;;28.81;44.23
56270;BME280;42176;43.240;27.880;2022-08-03T04:22:53;100026.81;;;29.07;43.96
56270;BME280;42176;43.240;27.880;2022-08-03T04:25:22;100042.94;;;29.62;42.84
56270;BME280;42176;43.240;27.880;2022-08-03T04:27:51;100043.28;;;30.12;41.10
56270;BME280;42176;43.240;27.880;2022-08-03T04:30:19;100037.94;;;30.45;40.63
56270;BME280;42176;43.240;27.880;2022-08-03T04:32:46;100032.28;;;30.38;40.04
56270;BME280;42176;43.240;27.880;2022-08-03T04:35:16;100035.66;;;30.75;39.32
56270;BME280;42176;43.240;27.880;2022-08-03T04:37:48;100040.50;;;31.23;38.46
56270;BME280;42176;43.240;27.880;2022-08-03T04:40:29;100039.09;;;31.68;37.49
56270;BME280;42176;43.240;27.880;2022-08-03T04:42:57;100025.78;;;31.73;36.96
56270;BME280;42176;43.240;27.880;2022-08-03T04:45:23;100046.28;;;32.42;35.63
56270;BME280;42176;43.240;27.880;2022-08-03T04:47:49;100043.19;;;33.00;34.64
56270;BME280;42176;43.240;27.880;2022-08-03T04:50:16;100027.50;;;33.09;33.73
56270;BME280;42176;43.240;27.880;2022-08-03T04:52:42;100043.84;;;33.64;32.72
56270;BME280;42176;43.240;27.880;2022-08-03T04:55:08;100035.72;;;33.85;32.76
56270;BME280;42176;43.240;27.880;2022-08-03T04:57:33;100039.47;;;34.23;31.63
56270;BME280;42176;43.240;27.880;2022-08-03T04:59:59;100046.91;;;34.59;30.91
56270;BME280;42176;43.240;27.880;2022-08-03T05:02:24;100040.88;;;34.19;31.31
56270;BME280;42176;43.240;27.880;2022-08-03T05:04:49;100047.13;;;34.42;31.03
56270;BME280;42176;43.240;27.880;2022-08-03T05:07:16;100044.94;;;34.53;30.67
56270;BME280;42176;43.240;27.880;2022-08-03T05:09:42;100049.16;;;34.70;30.29
56270;BME280;42176;43.240;27.880;2022-08-03T05:12:08;100022.41;;;34.64;30.18
56270;BME280;42176;43.240;27.880;2022-08-03T05:14:34;100039.13;;;34.99;29.89
56270;BME280;42176;43.240;27.880;2022-08-03T05:17:05;100041.72;;;35.29;29.25
56270;BME280;42176;43.240;27.880;2022-08-03T05:19:31;100057.88;;;35.61;29.00
56270;BME280;42176;43.240;27.880;2022-08-03T05:21:57;100056.03;;;35.68;28.43
56270;BME280;42176;43.240;27.880;2022-08-03T05:24:23;100052.47;;;35.46;28.80
56270;BME280;42176;43.240;27.880;2022-08-03T05:26:48;100056.75;;;35.27;29.22
56270;BME280;42176;43.240;27.880;2022-08-03T05:29:14;100064.88;;;34.76;30.27
56270;BME280;42176;43.240;27.880;2022-08-03T05:31:39;100073.72;;;35.09;29.16
56270;BME280;42176;43.240;27.880;2022-08-03T05:34:05;100061.50;;;35.40;28.76
56270;BME280;42176;43.240;27.880;2022-08-03T05:36:30;100068.88;;;35.11;28.98
56270;BME280;42176;43.240;27.880;2022-08-03T05:38:56;100075.94;;;35.20;28.92
56270;BME280;42176;43.240;27.880;2022-08-03T05:41:22;100066.50;;;35.51;28.37
56270;BME280;42176;43.240;27.880;2022-08-03T05:43:47;100070.88;;;35.67;27.82
56270;BME280;42176;43.240;27.880;2022-08-03T05:46:13;100058.88;;;35.53;27.95
56270;BME280;42176;43.240;27.880;2022-08-03T05:48:39;100065.00;;;35.77;28.09
56270;BME280;42176;43.240;27.880;2022-08-03T05:51:04;100061.78;;;36.02;27.69
56270;BME280;42176;43.240;27.880;2022-08-03T05:53:32;100073.84;;;35.65;27.33
56270;BME280;42176;43.240;27.880;2022-08-03T05:55:58;100065.69;;;36.14;27.43
56270;BME280;42176;43.240;27.880;2022-08-03T05:58:23;100081.22;;;36.64;26.38
56270;BME280;42176;43.240;27.880;2022-08-03T06:00:49;100089.31;;;36.72;26.67
56270;BME280;42176;43.240;27.880;2022-08-03T06:03:14;100078.97;;;36.87;25.96
56270;BME280;42176;43.240;27.880;2022-08-03T06:05:39;100082.47;;;37.57;25.47
56270;BME280;42176;43.240;27.880;2022-08-03T06:08:05;100064.66;;;36.70;25.90
56270;BME280;42176;43.240;27.880;2022-08-03T06:10:30;100080.97;;;37.21;26.28
56270;BME280;42176;43.240;27.880;2022-08-03T06:12:56;100065.22;;;37.88;25.15
56270;BME280;42176;43.240;27.880;2022-08-03T06:15:21;100071.97;;;38.26;24.56
56270;BME280;42176;43.240;27.880;2022-08-03T06:17:48;100069.00;;;38.21;24.51
56270;BME280;42176;43.240;27.880;2022-08-03T06:20:19;100079.06;;;37.95;24.21
56270;BME280;42176;43.240;27.880;2022-08-03T06:22:45;100075.00;;;37.98;24.71
56270;BME280;42176;43.240;27.880;2022-08-03T06:25:11;100081.00;;;37.61;25.11
56270;BME280;42176;43.240;27.880;2022-08-03T06:27:38;100070.34;;;37.98;24.35
56270;BME280;42176;43.240;27.880;2022-08-03T06:30:07;100082.53;;;38.49;23.94
56270;BME280;42176;43.240;27.880;2022-08-03T06:32:33;100062.56;;;39.18;22.86
56270;BME280;42176;43.240;27.880;2022-08-03T06:34:59;100067.88;;;38.88;23.06
56270;BME280;42176;43.240;27.880;2022-08-03T06:37:26;100046.22;;;38.71;23.09
56270;BME280;42176;43.240;27.880;2022-08-03T06:39:52;100065.88;;;39.02;22.94
56270;BME280;42176;43.240;27.880;2022-08-03T06:42:23;100075.59;;;39.11;22.20
56270;BME280;42176;43.240;27.880;2022-08-03T06:44:49;100080.06;;;39.12;22.75
56270;BME280;42176;43.240;27.880;2022-08-03T06:47:15;100064.25;;;39.19;22.40
56270;BME280;42176;43.240;27.880;2022-08-03T06:49:41;100083.19;;;39.29;22.07
56270;BME280;42176;43.240;27.880;2022-08-03T06:52:06;100073.38;;;39.52;21.51
56270;BME280;42176;43.240;27.880;2022-08-03T06:54:32;100079.69;;;39.40;21.75
56270;BME280;42176;43.240;27.880;2022-08-03T06:56:57;100101.81;;;39.15;21.52
56270;BME280;42176;43.240;27.880;2022-08-03T06:59:23;100085.97;;;38.45;22.05
56270;BME280;42176;43.240;27.880;2022-08-03T07:01:48;100064.47;;;38.79;22.23
56270;BME280;42176;43.240;27.880;2022-08-03T07:04:14;100073.16;;;39.28;21.88
56270;BME280;42176;43.240;27.880;2022-08-03T07:06:39;100086.25;;;39.46;21.51
56270;BME280;42176;43.240;27.880;2022-08-03T07:09:05;100073.19;;;39.21;21.30
56270;BME280;42176;43.240;27.880;2022-08-03T07:11:30;100097.47;;;39.26;21.06
56270;BME280;42176;43.240;27.880;2022-08-03T07:13:56;100070.44;;;38.89;21.45
56270;BME280;42176;43.240;27.880;2022-08-03T07:16:21;100088.22;;;39.07;21.33
56270;BME280;42176;43.240;27.880;2022-08-03T07:18:47;100078.91;;;38.94;21.16
56270;BME280;42176;43.240;27.880;2022-08-03T07:21:13;100061.63;;;38.60;21.82
56270;BME280;42176;43.240;27.880;2022-08-03T07:23:40;100056.72;;;37.90;21.89
56270;BME280;42176;43.240;27.880;2022-08-03T07:26:06;100106.09;;;37.93;22.71
56270;BME280;42176;43.240;27.880;2022-08-03T07:28:32;100098.75;;;38.39;22.39
56270;BME280;42176;43.240;27.880;2022-08-03T07:30:58;100096.66;;;38.80;21.96
56270;BME280;42176;43.240;27.880;2022-08-03T07:33:23;100023.88;;;38.20;22.08
56270;BME280;42176;43.240;27.880;2022-08-03T07:35:49;100087.00;;;38.96;21.31
56270;BME280;42176;43.240;27.880;2022-08-03T07:38:14;100097.03;;;38.97;21.70
56270;BME280;42176;43.240;27.880;2022-08-03T07:40:40;100099.50;;;38.66;20.96
56270;BME280;42176;43.240;27.880;2022-08-03T07:43:06;100112.03;;;37.97;21.10
56270;BME280;42176;43.240;27.880;2022-08-03T07:45:31;100018.44;;;37.73;21.08
56270;BME280;42176;43.240;27.880;2022-08-03T07:47:57;100094.50;;;38.36;20.83
56270;BME280;42176;43.240;27.880;2022-08-03T07:50:22;100100.41;;;38.47;21.13
56270;BME280;42176;43.240;27.880;2022-08-03T07:52:48;100096.22;;;38.37;20.94
56270;BME280;42176;43.240;27.880;2022-08-03T07:55:16;100100.13;;;37.69;21.78
56270;BME280;42176;43.240;27.880;2022-08-03T07:57:42;100092.00;;;37.88;21.63
56270;BME280;42176;43.240;27.880;2022-08-03T08:00:17;100100.44;;;38.33;21.01
56270;BME280;42176;43.240;27.880;2022-08-03T08:02:43;100098.75;;;38.46;21.25
56270;BME280;42176;43.240;27.880;2022-08-03T08:05:09;100098.13;;;38.30;21.14
56270;BME280;42176;43.240;27.880;2022-08-03T08:07:36;100105.63;;;38.10;20.46
56270;BME280;42176;43.240;27.880;2022-08-03T08:10:07;100093.06;;;38.14;21.18
56270;BME280;42176;43.240;27.880;2022-08-03T08:12:34;100111.06;;;38.50;20.94
56270;BME280;42176;43.240;27.880;2022-08-03T08:15:00;100098.69;;;38.59;21.15
56270;BME280;42176;43.240;27.880;2022-08-03T08:17:25;100098.69;;;38.59;20.41
56270;BME280;42176;43.240;27.880;2022-08-03T08:19:51;100104.88;;;38.61;20.02
56270;BME280;42176;43.240;27.880;2022-08-03T08:22:26;100106.22;;;38.38;21.09
56270;BME280;42176;43.240;27.880;2022-08-03T08:25:13;100105.16;;;38.40;21.18
56270;BME280;42176;43.240;27.880;2022-08-03T08:27:43;100112.81;;;38.37;20.58
56270;BME280;42176;43.240;27.880;2022-08-03T08:30:09;100098.34;;;38.22;21.17
56270;BME280;42176;43.240;27.880;2022-08-03T08:32:35;100076.75;;;38.58;20.28
56270;BME280;42176;43.240;27.880;2022-08-03T08:35:03;100021.66;;;38.43;20.06
56270;BME280;42176;43.240;27.880;2022-08-03T08:37:29;100044.75;;;38.10;19.93
56270;BME280;42176;43.240;27.880;2022-08-03T08:39:55;100015.28;;;38.42;20.00
56270;BME280;42176;43.240;27.880;2022-08-03T08:42:21;100018.88;;;37.37;21.31
56270;BME280;42176;43.240;27.880;2022-08-03T08:44:46;100080.34;;;37.32;22.18
56270;BME280;42176;43.240;27.880;2022-08-03T08:47:13;100120.50;;;37.28;21.91
56270;BME280;42176;43.240;27.880;2022-08-03T08:49:39;100108.59;;;37.21;21.98
56270;BME280;42176;43.240;27.880;2022-08-03T08:52:07;100094.41;;;36.75;21.71
56270;BME280;42176;43.240;27.880;2022-08-03T08:54:35;100055.88;;;36.05;21.88
56270;BME280;42176;43.240;27.880;2022-08-03T08:57:02;100099.97;;;36.82;21.29
56270;BME280;42176;43.240;27.880;2022-08-03T08:59:31;100100.50;;;37.12;21.06
56270;BME280;42176;43.240;27.880;2022-08-03T09:01:58;100119.03;;;36.63;20.69
56270;BME280;42176;43.240;27.880;2022-08-03T09:04:24;100076.25;;;37.01;20.64
56270;BME280;42176;43.240;27.880;2022-08-03T09:06:51;100102.19;;;37.13;20.78
56270;BME280;42176;43.240;27.880;2022-08-03T09:09:16;100087.38;;;36.59;20.72
56270;BME280;42176;43.240;27.880;2022-08-03T09:11:42;100100.88;;;36.96;20.71
56270;BME280;42176;43.240;27.880;2022-08-03T09:14:08;100102.91;;;36.67;21.28
56270;BME280;42176;43.240;27.880;2022-08-03T09:16:34;100093.75;;;36.24;21.54
56270;BME280;42176;43.240;27.880;2022-08-03T09:19:11;100099.31;;;35.24;23.58
56270;BME280;42176;43.240;27.880;2022-08-03T09:21:40;100091.34;;;34.56;23.57
56270;BME280;42176;43.240;27.880;2022-08-03T09:24:05;100086.56;;;34.35;23.97
56270;BME280;42176;43.240;27.880;2022-08-03T09:26:36;100088.78;;;34.39;23.36
56270;BME280;42176;43.240;27.880;2022-08-03T09:29:06;100088.09;;;34.37;23.40
56270;BME280;42176;43.240;27.880;2022-08-03T09:31:43;100074.19;;;33.94;23.06
56270;BME280;42176;43.240;27.880;2022-08-03T09:34:11;100079.72;;;33.85;23.78
56270;BME280;42176;43.240;27.880;2022-08-03T09:36:41;100067.75;;;34.02;23.21
56270;BME280;42176;43.240;27.880;2022-08-03T09:39:09;100092.56;;;33.93;23.24
56270;BME280;42176;43.240;27.880;2022-08-03T09:42:05;100091.31;;;33.96;23.01
56270;BME280;42176;43.240;27.880;2022-08-03T09:44:36;100056.19;;;33.68;23.16
56270;BME280;42176;43.240;27.880;2022-08-03T09:47:02;100069.47;;;33.79;23.25
56270;BME280;42176;43.240;27.880;2022-08-03T09:49:28;100086.03;;;34.09;22.28
56270;BME280;42176;43.240;27.880;2022-08-03T09:51:53;100063.66;;;33.59;22.92
56270;BME280;42176;43.240;27.880;2022-08-03T09:54:29;100082.84;;;32.98;23.65
56270;BME280;42176;43.240;27.880;2022-08-03T09:56:56;100067.09;;;32.91;24.16
56270;BME280;42176;43.240;27.880;2022-08-03T09:59:30;100081.50;;;32.93;24.29
56270;BME280;42176;43.240;27.880;2022-08-03T10:01:57;100063.63;;;32.98;24.01
56270;BME280;42176;43.240;27.880;2022-08-03T10:04:24;100094.63;;;32.75;24.39
56270;BME280;42176;43.240;27.880;2022-08-03T10:07:07;100009.38;;;32.53;24.57
56270;BME280;42176;43.240;27.880;2022-08-03T10:09:35;100076.00;;;32.93;23.46
56270;BME280;42176;43.240;27.880;2022-08-03T10:12:11;100078.41;;;32.97;23.46
56270;BME280;42176;43.240;27.880;2022-08-03T10:14:38;100072.97;;;32.80;24.27
56270;BME280;42176;43.240;27.880;2022-08-03T10:17:04;100031.66;;;32.50;24.50
56270;BME280;42176;43.240;27.880;2022-08-03T10:19:30;100062.88;;;32.49;24.87
56270;BME280;42176;43.240;27.880;2022-08-03T10:22:03;100061.91;;;32.65;25.00
56270;BME280;42176;43.240;27.880;2022-08-03T10:24:33;100067.09;;;32.91;24.54
56270;BME280;42176;43.240;27.880;2022-08-03T10:27:02;100075.81;;;32.63;24.65
56270;BME280;42176;43.240;27.880;2022-08-03T10:29:36;100073.09;;;32.15;24.13
56270;BME280;42176;43.240;27.880;2022-08-03T10:32:06;100071.94;;;32.01;24.72
56270;BME280;42176;43.240;27.880;2022-08-03T10:34:37;100022.59;;;32.01;24.29
56270;BME280;42176;43.240;27.880;2022-08-03T10:37:09;100049.03;;;31.86;25.11
56270;BME280;42176;43.240;27.880;2022-08-03T10:39:36;100025.81;;;32.13;24.74
56270;BME280;42176;43.240;27.880;2022-08-03T10:42:02;100059.63;;;32.77;24.84
56270;BME280;42176;43.240;27.880;2022-08-03T10:44:38;100002.53;;;32.49;24.68
56270;BME280;42176;43.240;27.880;2022-08-03T10:47:04;100023.09;;;32.53;24.31
56270;BME280;42176;43.240;27.880;2022-08-03T10:49:31;100057.66;;;32.62;23.83
56270;BME280;42176;43.240;27.880;2022-08-03T10:51:57;100066.34;;;32.74;25.50
56270;BME280;42176;43.240;27.880;2022-08-03T10:54:40;100006.94;;;31.46;37.20
56270;BME280;42176;43.240;27.880;2022-08-03T10:57:52;100059.44;;;29.79;43.58
56270;BME280;42176;43.240;27.880;2022-08-03T11:00:20;100066.41;;;30.26;43.44
56270;BME280;42176;43.240;27.880;2022-08-03T11:03:03;100053.97;;;29.97;43.77
56270;BME280;42176;43.240;27.880;2022-08-03T11:05:32;100047.03;;;29.58;44.39
56270;BME280;42176;43.240;27.880;2022-08-03T11:08:33;100043.75;;;29.81;44.84
56270;BME280;42176;43.240;27.880;2022-08-03T11:14:02;100050.94;;;30.51;42.90
56270;BME280;42176;43.240;27.880;2022-08-03T11:16:31;100042.22;;;29.16;46.02
56270;BME280;42176;43.240;27.880;2022-08-03T11:19:02;100044.75;;;28.35;48.94
56270;BME280;42176;43.240;27.880;2022-08-03T11:27:32;100025.66;;;29.80;45.38
56270;BME280;42176;43.240;27.880;2022-08-03T11:35:14;100026.97;;;28.87;47.61
56270;BME280;42176;43.240;27.880;2022-08-03T11:40:47;100030.81;;;29.91;44.57
56270;BME280;42176;43.240;27.880;2022-08-03T11:48:26;100027.84;;;27.56;50.14
56270;BME280;42176;43.240;27.880;2022-08-03T11:50:52;100008.34;;;27.41;51.29
56270;BME280;42176;43.240;27.880;2022-08-03T11:53:18;100034.81;;;27.78;50.61
56270;BME280;42176;43.240;27.880;2022-08-03T11:55:45;100035.78;;;27.87;50.04
56270;BME280;42176;43.240;27.880;2022-08-03T11:58:15;100012.06;;;28.63;47.84
56270;BME280;42176;43.240;27.880;2022-08-03T12:00:41;100020.38;;;28.06;48.03
56270;BME280;42176;43.240;27.880;2022-08-03T12:03:09;99992.97;;;28.07;48.13
56270;BME280;42176;43.240;27.880;2022-08-03T12:05:38;100015.31;;;28.21;48.77
56270;BME280;42176;43.240;27.880;2022-08-03T12:08:05;99990.00;;;27.63;49.36
56270;BME280;42176;43.240;27.880;2022-08-03T12:10:31;99998.06;;;27.55;50.09
56270;BME280;42176;43.240;27.880;2022-08-03T12:12:58;100024.84;;;27.49;49.94
56270;BME280;42176;43.240;27.880;2022-08-03T12:15:28;99997.25;;;27.25;50.15
56270;BME280;42176;43.240;27.880;2022-08-03T12:17:56;100007.69;;;27.19;51.72
56270;BME280;42176;43.240;27.880;2022-08-03T12:20:24;100009.53;;;27.29;52.24
56270;BME280;42176;43.240;27.880;2022-08-03T12:22:50;99976.53;;;27.99;51.01
56270;BME280;42176;43.240;27.880;2022-08-03T12:25:36;99996.84;;;28.15;48.97
56270;BME280;42176;43.240;27.880;2022-08-03T12:28:11;100014.41;;;28.30;48.62
56270;BME280;42176;43.240;27.880;2022-08-03T12:30:38;100007.91;;;28.59;47.77
56270;BME280;42176;43.240;27.880;2022-08-03T12:33:12;100017.22;;;28.38;47.91
56270;BME280;42176;43.240;27.880;2022-08-03T12:35:38;99983.47;;;28.85;46.70
56270;BME280;42176;43.240;27.880;2022-08-03T12:38:03;100003.53;;;28.66;47.74
56270;BME280;42176;43.240;27.880;2022-08-03T12:40:29;100012.06;;;27.98;48.49
56270;BME280;42176;43.240;27.880;2022-08-03T12:42:54;100009.25;;;27.32;50.18
56270;BME280;42176;43.240;27.880;2022-08-03T12:45:26;100007.78;;;26.59;52.42
56270;BME280;42176;43.240;27.880;2022-08-03T12:47:56;99992.91;;;26.63;53.11
56270;BME280;42176;43.240;27.880;2022-08-03T12:52:56;100005.75;;;26.51;54.37
56270;BME280;42176;43.240;27.880;2022-08-03T12:55:22;99998.69;;;27.09;53.21
56270;BME280;42176;43.240;27.880;2022-08-03T12:57:48;100006.97;;;27.47;51.85
56270;BME280;42176;43.240;27.880;2022-08-03T13:00:16;100008.13;;;26.85;53.82
56270;BME280;42176;43.240;27.880;2022-08-03T13:02:42;99999.25;;;27.03;54.23
56270;BME280;42176;43.240;27.880;2022-08-03T13:05:14;99975.94;;;26.90;53.64
56270;BME280;42176;43.240;27.880;2022-08-03T13:07:44;99987.19;;;27.35;51.66
56270;BME280;42176;43.240;27.880;2022-08-03T13:10:11;100000.97;;;27.24;51.09
56270;BME280;42176;43.240;27.880;2022-08-03T13:12:47;99973.50;;;27.07;50.94
56270;BME280;42176;43.240;27.880;2022-08-03T13:15:13;99989.06;;;26.75;51.91
56270;BME280;42176;43.240;27.880;2022-08-03T13:17:39;99972.06;;;26.83;52.11
56270;BME280;42176;43.240;27.880;2022-08-03T13:20:05;99986.47;;;26.54;53.02
56270;BME280;42176;43.240;27.880;2022-08-03T13:22:31;99960.16;;;26.55;52.71
56270;BME280;42176;43.240;27.880;2022-08-03T13:24:57;100007.25;;;27.14;51.41